sensor_id;sensor_type;location;lat;lon;timestamp;temperature;humidity
55777;DHT22;54079;44.540;18.784;2024-03-06T00:02:12;12.70;96.50
55777;DHT22;54079;44.540;18.784;2024-03-06T00:04:38;12.80;96.50
55777;DHT22;54079;44.540;18.784;2024-03-06T00:07:04;12.70;96.80
55777;DHT22;54079;44.540;18.784;2024-03-06T00:09:30;12.70;97.00
55777;DHT22;54079;44.540;18.784;2024-03-06T00:11:58;12.60;97.30
55777;DHT22;54079;44.540;18.784;2024-03-06T00:14:24;12.50;97.70
55777;DHT22;54079;44.540;18.784;2024-03-06T00:16:50;12.60;97.70
55777;DHT22;54079;44.540;18.784;2024-03-06T00:19:17;12.60;97.90
55777;DHT22;54079;44.540;18.784;2024-03-06T00:21:43;12.70;97.70
55777;DHT22;54079;44.540;18.784;2024-03-06T00:24:12;12.40;98.20
55777;DHT22;54079;44.540;18.784;2024-03-06T00:26:43;12.40;98.10
55777;DHT22;54079;44.540;18.784;2024-03-06T00:29:10;12.30;98.70
55777;DHT22;54079;44.540;18.784;2024-03-06T00:31:37;12.40;98.80
55777;DHT22;54079;44.540;18.784;2024-03-06T00:34:07;12.40;98.80
55777;DHT22;54079;44.540;18.784;2024-03-06T00:36:33;12.50;98.20
55777;DHT22;54079;44.540;18.784;2024-03-06T00:38:59;12.50;98.30
55777;DHT22;54079;44.540;18.784;2024-03-06T00:41:25;12.20;98.80
55777;DHT22;54079;44.540;18.784;2024-03-06T00:43:51;12.00;99.90
55777;DHT22;54079;44.540;18.784;2024-03-06T00:46:17;12.10;99.90
55777;DHT22;54079;44.540;18.784;2024-03-06T00:48:43;12.10;99.90
55777;DHT22;54079;44.540;18.784;2024-03-06T00:51:09;12.20;99.90
55777;DHT22;54079;44.540;18.784;2024-03-06T00:53:35;12.00;99.90
55777;DHT22;54079;44.540;18.784;2024-03-06T00:56:01;12.10;99.90
55777;DHT22;54079;44.540;18.784;2024-03-06T00:58:28;12.30;99.90
55777;DHT22;54079;44.540;18.784;2024-03-06T01:00:54;12.40;99.90
55777;DHT22;54079;44.540;18.784;2024-03-06T01:03:19;12.30;99.90
55777;DHT22;54079;44.540;18.784;2024-03-06T01:05:46;12.30;99.90
55777;DHT22;54079;44.540;18.784;2024-03-06T01:08:12;12.20;99.90
55777;DHT22;54079;44.540;18.784;2024-03-06T01:10:38;12.10;99.90
55777;DHT22;54079;44.540;18.784;2024-03-06T01:13:04;12.10;99.90
55777;DHT22;54079;44.540;18.784;2024-03-06T01:15:30;12.10;99.90
55777;DHT22;54079;44.540;18.784;2024-03-06T01:17:56;12.00;99.90
55777;DHT22;54079;44.540;18.784;2024-03-06T01:20:23;11.60;99.90
55777;DHT22;54079;44.540;18.784;2024-03-06T01:22:49;11.60;99.90
55777;DHT22;54079;44.540;18.784;2024-03-06T01:25:15;11.60;99.90
55777;DHT22;54079;44.540;18.784;2024-03-06T01:27:40;11.60;99.90
55777;DHT22;54079;44.540;18.784;2024-03-06T01:30:07;11.60;99.90
55777;DHT22;54079;44.540;18.784;2024-03-06T01:32:33;11.50;99.90
55777;DHT22;54079;44.540;18.784;2024-03-06T01:34:59;11.50;99.90
55777;DHT22;54079;44.540;18.784;2024-03-06T01:37:26;11.40;99.90
55777;DHT22;54079;44.540;18.784;2024-03-06T01:39:52;11.60;99.90
55777;DHT22;54079;44.540;18.784;2024-03-06T01:42:18;11.60;99.90
55777;DHT22;54079;44.540;18.784;2024-03-06T01:44:44;11.80;99.90
55777;DHT22;54079;44.540;18.784;2024-03-06T01:47:10;11.70;99.90
55777;DHT22;54079;44.540;18.784;2024-03-06T01:49:36;11.80;99.90
55777;DHT22;54079;44.540;18.784;2024-03-06T01:52:02;11.90;99.90
55777;DHT22;54079;44.540;18.784;2024-03-06T01:54:30;11.80;99.90
55777;DHT22;54079;44.540;18.784;2024-03-06T01:56:57;11.70;99.90
55777;DHT22;54079;44.540;18.784;2024-03-06T01:59:26;11.60;99.90
55777;DHT22;54079;44.540;18.784;2024-03-06T02:01:55;11.70;99.90
55777;DHT22;54079;44.540;18.784;2024-03-06T02:04:21;11.80;99.90
55777;DHT22;54079;44.540;18.784;2024-03-06T02:06:48;11.80;99.90
55777;DHT22;54079;44.540;18.784;2024-03-06T02:09:14;11.80;99.90
55777;DHT22;54079;44.540;18.784;2024-03-06T02:11:40;11.90;99.90
55777;DHT22;54079;44.540;18.784;2024-03-06T02:14:07;11.90;99.90
55777;DHT22;54079;44.540;18.784;2024-03-06T02:16:36;11.50;99.90
55777;DHT22;54079;44.540;18.784;2024-03-06T02:19:05;11.60;99.90
55777;DHT22;54079;44.540;18.784;2024-03-06T02:21:31;11.50;99.90
55777;DHT22;54079;44.540;18.784;2024-03-06T02:23:57;11.40;99.90
55777;DHT22;54079;44.540;18.784;2024-03-06T02:26:24;11.40;99.90
55777;DHT22;54079;44.540;18.784;2024-03-06T02:28:54;11.40;99.90
55777;DHT22;54079;44.540;18.784;2024-03-06T02:31:21;11.40;99.90
55777;DHT22;54079;44.540;18.784;2024-03-06T02:33:47;11.30;99.90
55777;DHT22;54079;44.540;18.784;2024-03-06T02:36:14;11.30;99.90
55777;DHT22;54079;44.540;18.784;2024-03-06T02:38:40;11.30;99.90
55777;DHT22;54079;44.540;18.784;2024-03-06T02:41:06;11.20;99.90
55777;DHT22;54079;44.540;18.784;2024-03-06T02:43:34;11.00;99.90
55777;DHT22;54079;44.540;18.784;2024-03-06T02:46:00;10.70;99.90
55777;DHT22;54079;44.540;18.784;2024-03-06T02:48:26;10.70;99.90
55777;DHT22;54079;44.540;18.784;2024-03-06T02:50:52;10.60;99.90
55777;DHT22;54079;44.540;18.784;2024-03-06T02:53:18;10.60;99.90
55777;DHT22;54079;44.540;18.784;2024-03-06T02:55:44;10.60;99.90
55777;DHT22;54079;44.540;18.784;2024-03-06T02:58:10;10.70;99.90
55777;DHT22;54079;44.540;18.784;2024-03-06T03:00:36;10.60;99.90
55777;DHT22;54079;44.540;18.784;2024-03-06T03:03:02;10.60;99.90
55777;DHT22;54079;44.540;18.784;2024-03-06T03:05:28;10.60;99.90
55777;DHT22;54079;44.540;18.784;2024-03-06T03:07:54;10.60;99.90
55777;DHT22;54079;44.540;18.784;2024-03-06T03:10:20;10.40;99.90
55777;DHT22;54079;44.540;18.784;2024-03-06T03:12:46;10.20;99.90
55777;DHT22;54079;44.540;18.784;2024-03-06T03:15:12;9.90;99.90
55777;DHT22;54079;44.540;18.784;2024-03-06T03:17:38;10.00;99.90
55777;DHT22;54079;44.540;18.784;2024-03-06T03:20:04;10.00;99.90
55777;DHT22;54079;44.540;18.784;2024-03-06T03:22:42;9.80;99.90
55777;DHT22;54079;44.540;18.784;2024-03-06T03:25:09;9.90;99.90
55777;DHT22;54079;44.540;18.784;2024-03-06T03:27:37;10.00;99.90
55777;DHT22;54079;44.540;18.784;2024-03-06T03:30:04;10.10;99.90
55777;DHT22;54079;44.540;18.784;2024-03-06T03:32:30;10.10;99.90
55777;DHT22;54079;44.540;18.784;2024-03-06T03:34:56;10.30;99.90
55777;DHT22;54079;44.540;18.784;2024-03-06T03:37:22;10.30;99.90
55777;DHT22;54079;44.540;18.784;2024-03-06T03:39:49;10.30;99.90
55777;DHT22;54079;44.540;18.784;2024-03-06T03:42:15;10.20;99.90
55777;DHT22;54079;44.540;18.784;2024-03-06T03:44:41;10.20;99.90
55777;DHT22;54079;44.540;18.784;2024-03-06T03:47:07;10.40;99.90
55777;DHT22;54079;44.540;18.784;2024-03-06T03:49:33;10.30;99.90
55777;DHT22;54079;44.540;18.784;2024-03-06T03:52:00;10.50;99.90
55777;DHT22;54079;44.540;18.784;2024-03-06T03:54:26;10.60;99.90
55777;DHT22;54079;44.540;18.784;2024-03-06T03:56:52;10.30;99.90
55777;DHT22;54079;44.540;18.784;2024-03-06T03:59:19;10.50;99.90
55777;DHT22;54079;44.540;18.784;2024-03-06T04:01:47;10.70;99.90
55777;DHT22;54079;44.540;18.784;2024-03-06T04:04:13;10.90;99.90
55777;DHT22;54079;44.540;18.784;2024-03-06T04:06:39;11.00;99.90
55777;DHT22;54079;44.540;18.784;2024-03-06T04:09:05;10.90;99.90
55777;DHT22;54079;44.540;18.784;2024-03-06T04:11:31;10.80;99.90
55777;DHT22;54079;44.540;18.784;2024-03-06T04:14:01;10.80;99.90
55777;DHT22;54079;44.540;18.784;2024-03-06T04:16:27;10.70;99.90
55777;DHT22;54079;44.540;18.784;2024-03-06T04:18:53;10.60;99.90
55777;DHT22;54079;44.540;18.784;2024-03-06T04:21:19;10.60;99.90
55777;DHT22;54079;44.540;18.784;2024-03-06T04:23:45;10.40;99.90
55777;DHT22;54079;44.540;18.784;2024-03-06T04:26:11;10.00;99.90
55777;DHT22;54079;44.540;18.784;2024-03-06T04:28:37;10.00;99.90
55777;DHT22;54079;44.540;18.784;2024-03-06T04:31:04;9.90;99.90
55777;DHT22;54079;44.540;18.784;2024-03-06T04:33:30;9.50;99.90
55777;DHT22;54079;44.540;18.784;2024-03-06T04:35:56;9.60;99.90
55777;DHT22;54079;44.540;18.784;2024-03-06T04:38:22;9.60;99.90
55777;DHT22;54079;44.540;18.784;2024-03-06T04:40:48;9.60;99.90
55777;DHT22;54079;44.540;18.784;2024-03-06T04:43:14;9.50;99.90
55777;DHT22;54079;44.540;18.784;2024-03-06T04:45:40;9.60;99.90
55777;DHT22;54079;44.540;18.784;2024-03-06T04:48:06;9.60;99.90
55777;DHT22;54079;44.540;18.784;2024-03-06T04:50:32;9.60;99.90
55777;DHT22;54079;44.540;18.784;2024-03-06T04:52:58;9.50;99.90
55777;DHT22;54079;44.540;18.784;2024-03-06T04:55:24;9.40;99.90
55777;DHT22;54079;44.540;18.784;2024-03-06T04:57:52;9.50;99.90
55777;DHT22;54079;44.540;18.784;2024-03-06T05:00:19;9.40;99.90
55777;DHT22;54079;44.540;18.784;2024-03-06T05:02:45;9.00;99.90
55777;DHT22;54079;44.540;18.784;2024-03-06T05:05:11;8.80;99.90
55777;DHT22;54079;44.540;18.784;2024-03-06T05:07:37;9.00;99.90
55777;DHT22;54079;44.540;18.784;2024-03-06T05:10:03;9.00;99.90
55777;DHT22;54079;44.540;18.784;2024-03-06T05:12:29;9.20;99.90
55777;DHT22;54079;44.540;18.784;2024-03-06T05:14:56;9.20;99.90
55777;DHT22;54079;44.540;18.784;2024-03-06T05:17:22;9.30;99.90
55777;DHT22;54079;44.540;18.784;2024-03-06T05:19:49;9.30;99.90
55777;DHT22;54079;44.540;18.784;2024-03-06T05:22:15;9.30;99.90
55777;DHT22;54079;44.540;18.784;2024-03-06T05:24:42;9.30;99.90
55777;DHT22;54079;44.540;18.784;2024-03-06T05:27:09;9.30;99.90
55777;DHT22;54079;44.540;18.784;2024-03-06T05:29:43;9.20;99.90
55777;DHT22;54079;44.540;18.784;2024-03-06T05:32:09;9.10;99.90
55777;DHT22;54079;44.540;18.784;2024-03-06T05:34:35;9.30;99.90
55777;DHT22;54079;44.540;18.784;2024-03-06T05:37:01;9.30;99.90
55777;DHT22;54079;44.540;18.784;2024-03-06T05:39:30;9.50;99.90
55777;DHT22;54079;44.540;18.784;2024-03-06T05:42:03;9.40;99.90
55777;DHT22;54079;44.540;18.784;2024-03-06T05:44:33;9.30;99.90
55777;DHT22;54079;44.540;18.784;2024-03-06T05:46:59;9.50;99.90
55777;DHT22;54079;44.540;18.784;2024-03-06T05:49:26;9.70;99.90
55777;DHT22;54079;44.540;18.784;2024-03-06T05:51:53;9.80;99.90
55777;DHT22;54079;44.540;18.784;2024-03-06T05:54:22;9.90;99.90
55777;DHT22;54079;44.540;18.784;2024-03-06T05:56:49;10.00;99.90
55777;DHT22;54079;44.540;18.784;2024-03-06T05:59:15;10.20;99.90
55777;DHT22;54079;44.540;18.784;2024-03-06T06:01:41;10.30;99.90
55777;DHT22;54079;44.540;18.784;2024-03-06T06:04:11;10.40;99.90
55777;DHT22;54079;44.540;18.784;2024-03-06T06:06:39;10.50;99.90
55777;DHT22;54079;44.540;18.784;2024-03-06T06:09:06;9.90;99.90
55777;DHT22;54079;44.540;18.784;2024-03-06T06:11:33;10.20;99.90
55777;DHT22;54079;44.540;18.784;2024-03-06T06:14:01;10.50;99.90
55777;DHT22;54079;44.540;18.784;2024-03-06T06:16:35;10.60;99.90
55777;DHT22;54079;44.540;18.784;2024-03-06T06:19:01;10.30;99.90
55777;DHT22;54079;44.540;18.784;2024-03-06T06:21:27;10.60;99.90
55777;DHT22;54079;44.540;18.784;2024-03-06T06:23:53;10.90;99.90
55777;DHT22;54079;44.540;18.784;2024-03-06T06:26:19;11.10;99.90
55777;DHT22;54079;44.540;18.784;2024-03-06T06:28:46;11.50;99.90
55777;DHT22;54079;44.540;18.784;2024-03-06T06:31:12;11.80;99.90
55777;DHT22;54079;44.540;18.784;2024-03-06T06:33:38;12.00;99.90
55777;DHT22;54079;44.540;18.784;2024-03-06T06:36:04;12.30;99.90
55777;DHT22;54079;44.540;18.784;2024-03-06T06:38:30;12.40;99.90
55777;DHT22;54079;44.540;18.784;2024-03-06T06:40:56;12.20;99.90
55777;DHT22;54079;44.540;18.784;2024-03-06T06:43:22;12.20;99.90
55777;DHT22;54079;44.540;18.784;2024-03-06T06:45:48;12.50;99.90
55777;DHT22;54079;44.540;18.784;2024-03-06T06:48:14;12.90;99.90
55777;DHT22;54079;44.540;18.784;2024-03-06T06:50:40;12.80;99.90
55777;DHT22;54079;44.540;18.784;2024-03-06T06:53:06;13.10;99.90
55777;DHT22;54079;44.540;18.784;2024-03-06T06:55:32;15.10;99.90
55777;DHT22;54079;44.540;18.784;2024-03-06T06:57:58;17.00;99.20
55777;DHT22;54079;44.540;18.784;2024-03-06T07:00:24;18.30;96.00
55777;DHT22;54079;44.540;18.784;2024-03-06T07:02:50;19.40;93.10
55777;DHT22;54079;44.540;18.784;2024-03-06T07:05:17;21.20;90.60
55777;DHT22;54079;44.540;18.784;2024-03-06T07:07:43;22.60;85.60
55777;DHT22;54079;44.540;18.784;2024-03-06T07:10:10;23.60;81.50
55777;DHT22;54079;44.540;18.784;2024-03-06T07:12:36;24.20;77.70
55777;DHT22;54079;44.540;18.784;2024-03-06T07:15:02;24.70;75.20
55777;DHT22;54079;44.540;18.784;2024-03-06T07:17:29;25.50;72.50
55777;DHT22;54079;44.540;18.784;2024-03-06T07:19:55;26.40;71.40
55777;DHT22;54079;44.540;18.784;2024-03-06T07:22:21;27.30;68.90
55777;DHT22;54079;44.540;18.784;2024-03-06T07:24:47;27.50;66.50
55777;DHT22;54079;44.540;18.784;2024-03-06T07:27:13;28.00;65.90
55777;DHT22;54079;44.540;18.784;2024-03-06T07:29:39;28.50;64.00
55777;DHT22;54079;44.540;18.784;2024-03-06T07:32:05;29.10;62.90
55777;DHT22;54079;44.540;18.784;2024-03-06T07:34:32;29.10;62.30
55777;DHT22;54079;44.540;18.784;2024-03-06T07:36:58;29.00;61.80
55777;DHT22;54079;44.540;18.784;2024-03-06T07:39:25;29.90;61.30
55777;DHT22;54079;44.540;18.784;2024-03-06T07:41:51;30.80;60.30
55777;DHT22;54079;44.540;18.784;2024-03-06T07:44:17;31.30;58.80
55777;DHT22;54079;44.540;18.784;2024-03-06T07:46:43;32.10;58.40
55777;DHT22;54079;44.540;18.784;2024-03-06T07:49:09;33.00;56.60
55777;DHT22;54079;44.540;18.784;2024-03-06T07:51:35;33.40;56.50
55777;DHT22;54079;44.540;18.784;2024-03-06T07:54:02;33.60;55.00
55777;DHT22;54079;44.540;18.784;2024-03-06T07:56:30;34.10;55.40
55777;DHT22;54079;44.540;18.784;2024-03-06T07:58:56;33.90;53.60
55777;DHT22;54079;44.540;18.784;2024-03-06T08:01:23;34.30;53.20
55777;DHT22;54079;44.540;18.784;2024-03-06T08:03:49;35.10;53.20
55777;DHT22;54079;44.540;18.784;2024-03-06T08:06:15;35.40;52.80
55777;DHT22;54079;44.540;18.784;2024-03-06T08:08:44;35.40;51.80
55777;DHT22;54079;44.540;18.784;2024-03-06T08:11:11;36.30;51.40
55777;DHT22;54079;44.540;18.784;2024-03-06T08:13:37;37.10;50.80
55777;DHT22;54079;44.540;18.784;2024-03-06T08:16:04;37.40;50.10
55777;DHT22;54079;44.540;18.784;2024-03-06T08:18:30;37.10;49.60
55777;DHT22;54079;44.540;18.784;2024-03-06T08:20:58;37.60;49.50
55777;DHT22;54079;44.540;18.784;2024-03-06T08:23:23;37.60;49.00
55777;DHT22;54079;44.540;18.784;2024-03-06T08:25:51;37.80;48.80
55777;DHT22;54079;44.540;18.784;2024-03-06T08:28:18;38.40;48.60
55777;DHT22;54079;44.540;18.784;2024-03-06T08:30:44;38.80;48.70
55777;DHT22;54079;44.540;18.784;2024-03-06T08:33:11;39.10;48.30
55777;DHT22;54079;44.540;18.784;2024-03-06T08:35:37;38.50;48.00
55777;DHT22;54079;44.540;18.784;2024-03-06T08:38:03;38.60;47.60
55777;DHT22;54079;44.540;18.784;2024-03-06T08:40:30;38.70;48.10
55777;DHT22;54079;44.540;18.784;2024-03-06T08:42:56;34.90;48.30
55777;DHT22;54079;44.540;18.784;2024-03-06T08:45:22;36.50;48.60
55777;DHT22;54079;44.540;18.784;2024-03-06T08:47:51;37.30;49.20
55777;DHT22;54079;44.540;18.784;2024-03-06T08:50:19;37.80;48.10
55777;DHT22;54079;44.540;18.784;2024-03-06T08:52:46;38.70;47.70
55777;DHT22;54079;44.540;18.784;2024-03-06T08:55:12;37.60;47.10
55777;DHT22;54079;44.540;18.784;2024-03-06T08:57:39;36.50;47.30
55777;DHT22;54079;44.540;18.784;2024-03-06T09:00:07;35.90;47.80
55777;DHT22;54079;44.540;18.784;2024-03-06T09:02:40;37.40;47.90
55777;DHT22;54079;44.540;18.784;2024-03-06T09:05:07;38.20;47.60
55777;DHT22;54079;44.540;18.784;2024-03-06T09:07:36;39.20;47.00
55777;DHT22;54079;44.540;18.784;2024-03-06T09:10:10;39.60;47.00
55777;DHT22;54079;44.540;18.784;2024-03-06T09:12:36;39.10;46.70
55777;DHT22;54079;44.540;18.784;2024-03-06T09:15:03;39.00;46.00
55777;DHT22;54079;44.540;18.784;2024-03-06T09:17:29;39.50;45.90
55777;DHT22;54079;44.540;18.784;2024-03-06T09:19:56;39.90;45.30
55777;DHT22;54079;44.540;18.784;2024-03-06T09:22:22;40.00;45.40
55777;DHT22;54079;44.540;18.784;2024-03-06T09:24:48;39.70;45.60
55777;DHT22;54079;44.540;18.784;2024-03-06T09:27:15;39.70;45.60
55777;DHT22;54079;44.540;18.784;2024-03-06T09:29:41;39.30;44.90
55777;DHT22;54079;44.540;18.784;2024-03-06T09:32:08;38.00;44.90
55777;DHT22;54079;44.540;18.784;2024-03-06T09:34:34;36.20;46.00
55777;DHT22;54079;44.540;18.784;2024-03-06T09:37:00;32.20;48.70
55777;DHT22;54079;44.540;18.784;2024-03-06T09:39:26;30.20;51.30
55777;DHT22;54079;44.540;18.784;2024-03-06T09:41:53;28.70;51.30
55777;DHT22;54079;44.540;18.784;2024-03-06T09:44:20;27.90;51.20
55777;DHT22;54079;44.540;18.784;2024-03-06T09:46:48;27.30;52.90
55777;DHT22;54079;44.540;18.784;2024-03-06T09:49:16;27.00;53.30
55777;DHT22;54079;44.540;18.784;2024-03-06T09:51:46;26.20;53.90
55777;DHT22;54079;44.540;18.784;2024-03-06T09:54:14;25.90;54.60
55777;DHT22;54079;44.540;18.784;2024-03-06T09:56:48;25.60;54.20
55777;DHT22;54079;44.540;18.784;2024-03-06T09:59:15;25.40;55.00
55777;DHT22;54079;44.540;18.784;2024-03-06T10:01:54;24.70;54.70
55777;DHT22;54079;44.540;18.784;2024-03-06T10:04:21;24.40;56.00
55777;DHT22;54079;44.540;18.784;2024-03-06T10:06:48;24.30;57.40
55777;DHT22;54079;44.540;18.784;2024-03-06T10:09:20;24.20;56.40
55777;DHT22;54079;44.540;18.784;2024-03-06T10:11:47;24.40;56.00
55777;DHT22;54079;44.540;18.784;2024-03-06T10:14:13;24.30;55.50
55777;DHT22;54079;44.540;18.784;2024-03-06T10:16:56;24.30;56.90
55777;DHT22;54079;44.540;18.784;2024-03-06T10:19:26;24.00;56.40
55777;DHT22;54079;44.540;18.784;2024-03-06T10:21:58;24.00;56.20
55777;DHT22;54079;44.540;18.784;2024-03-06T10:24:26;23.90;55.30
55777;DHT22;54079;44.540;18.784;2024-03-06T10:26:54;23.50;56.00
55777;DHT22;54079;44.540;18.784;2024-03-06T10:29:22;23.10;55.60
55777;DHT22;54079;44.540;18.784;2024-03-06T10:31:49;22.90;56.20
55777;DHT22;54079;44.540;18.784;2024-03-06T10:34:16;22.50;56.90
55777;DHT22;54079;44.540;18.784;2024-03-06T10:36:43;22.30;57.60
55777;DHT22;54079;44.540;18.784;2024-03-06T10:39:11;21.50;59.00
55777;DHT22;54079;44.540;18.784;2024-03-06T10:41:42;21.20;60.10
55777;DHT22;54079;44.540;18.784;2024-03-06T10:44:11;20.80;60.90
55777;DHT22;54079;44.540;18.784;2024-03-06T10:46:44;20.30;61.50
55777;DHT22;54079;44.540;18.784;2024-03-06T10:49:13;19.90;62.50
55777;DHT22;54079;44.540;18.784;2024-03-06T10:51:44;19.50;62.80
55777;DHT22;54079;44.540;18.784;2024-03-06T10:54:13;19.20;63.50
55777;DHT22;54079;44.540;18.784;2024-03-06T10:56:42;19.40;63.60
55777;DHT22;54079;44.540;18.784;2024-03-06T10:59:11;19.00;64.60
55777;DHT22;54079;44.540;18.784;2024-03-06T11:01:39;19.10;65.20
55777;DHT22;54079;44.540;18.784;2024-03-06T11:04:06;18.70;65.20
55777;DHT22;54079;44.540;18.784;2024-03-06T11:06:33;18.40;66.30
55777;DHT22;54079;44.540;18.784;2024-03-06T11:09:01;18.00;66.60
55777;DHT22;54079;44.540;18.784;2024-03-06T11:11:28;18.20;67.70
55777;DHT22;54079;44.540;18.784;2024-03-06T11:14:06;17.60;67.00
55777;DHT22;54079;44.540;18.784;2024-03-06T11:19:22;17.60;71.00
55777;DHT22;54079;44.540;18.784;2024-03-06T11:21:48;17.90;70.30
55777;DHT22;54079;44.540;18.784;2024-03-06T11:24:19;18.00;71.10
55777;DHT22;54079;44.540;18.784;2024-03-06T11:27:00;17.90;72.30
55777;DHT22;54079;44.540;18.784;2024-03-06T11:32:38;17.70;72.90
55777;DHT22;54079;44.540;18.784;2024-03-06T11:35:22;18.20;73.10
55777;DHT22;54079;44.540;18.784;2024-03-06T11:37:50;18.10;73.90
55777;DHT22;54079;44.540;18.784;2024-03-06T11:40:23;17.90;74.30
55777;DHT22;54079;44.540;18.784;2024-03-06T11:42:52;18.20;75.50
55777;DHT22;54079;44.540;18.784;2024-03-06T11:45:19;17.90;76.60
55777;DHT22;54079;44.540;18.784;2024-03-06T11:48:00;18.00;77.80
55777;DHT22;54079;44.540;18.784;2024-03-06T11:50:27;18.50;76.70
55777;DHT22;54079;44.540;18.784;2024-03-06T11:52:59;18.80;74.90
55777;DHT22;54079;44.540;18.784;2024-03-06T11:55:25;18.60;73.50
55777;DHT22;54079;44.540;18.784;2024-03-06T11:57:52;18.90;73.30
55777;DHT22;54079;44.540;18.784;2024-03-06T12:00:22;18.90;72.60
55777;DHT22;54079;44.540;18.784;2024-03-06T12:02:48;18.60;71.80
55777;DHT22;54079;44.540;18.784;2024-03-06T12:05:15;18.30;72.80
55777;DHT22;54079;44.540;18.784;2024-03-06T12:07:48;18.20;73.00
55777;DHT22;54079;44.540;18.784;2024-03-06T12:10:16;17.70;73.40
55777;DHT22;54079;44.540;18.784;2024-03-06T12:12:43;18.00;73.70
55777;DHT22;54079;44.540;18.784;2024-03-06T12:15:11;18.10;74.50
55777;DHT22;54079;44.540;18.784;2024-03-06T12:17:47;17.90;74.20
55777;DHT22;54079;44.540;18.784;2024-03-06T12:20:16;17.60;73.40
55777;DHT22;54079;44.540;18.784;2024-03-06T12:22:54;17.40;71.90
55777;DHT22;54079;44.540;18.784;2024-03-06T12:25:26;17.40;71.90
55777;DHT22;54079;44.540;18.784;2024-03-06T12:27:54;17.10;71.70
55777;DHT22;54079;44.540;18.784;2024-03-06T12:30:21;17.20;72.30
55777;DHT22;54079;44.540;18.784;2024-03-06T12:33:00;17.30;72.50
55777;DHT22;54079;44.540;18.784;2024-03-06T12:35:30;17.20;72.70
55777;DHT22;54079;44.540;18.784;2024-03-06T12:37:56;17.20;74.30
55777;DHT22;54079;44.540;18.784;2024-03-06T12:40:23;17.20;72.80
55777;DHT22;54079;44.540;18.784;2024-03-06T12:42:49;17.30;72.10
55777;DHT22;54079;44.540;18.784;2024-03-06T12:45:18;17.40;71.00
55777;DHT22;54079;44.540;18.784;2024-03-06T12:47:45;17.40;69.70
55777;DHT22;54079;44.540;18.784;2024-03-06T12:50:14;17.50;69.90
55777;DHT22;54079;44.540;18.784;2024-03-06T12:52:40;17.60;70.90
55777;DHT22;54079;44.540;18.784;2024-03-06T12:55:07;17.60;70.90
55777;DHT22;54079;44.540;18.784;2024-03-06T12:57:33;17.70;71.50
55777;DHT22;54079;44.540;18.784;2024-03-06T12:59:59;17.50;73.10
55777;DHT22;54079;44.540;18.784;2024-03-06T13:02:26;17.70;71.40
55777;DHT22;54079;44.540;18.784;2024-03-06T13:04:52;17.80;69.70
55777;DHT22;54079;44.540;18.784;2024-03-06T13:07:19;17.60;67.70
55777;DHT22;54079;44.540;18.784;2024-03-06T13:09:45;17.60;69.20
55777;DHT22;54079;44.540;18.784;2024-03-06T13:12:11;17.50;70.00
55777;DHT22;54079;44.540;18.784;2024-03-06T13:14:37;17.50;71.70
55777;DHT22;54079;44.540;18.784;2024-03-06T13:17:03;17.60;72.50
55777;DHT22;54079;44.540;18.784;2024-03-06T13:19:29;17.60;73.00
55777;DHT22;54079;44.540;18.784;2024-03-06T13:21:55;17.50;72.60
55777;DHT22;54079;44.540;18.784;2024-03-06T13:24:21;17.80;72.20
55777;DHT22;54079;44.540;18.784;2024-03-06T13:26:48;17.70;72.30
55777;DHT22;54079;44.540;18.784;2024-03-06T13:29:14;17.80;71.60
55777;DHT22;54079;44.540;18.784;2024-03-06T13:31:40;17.50;71.70
55777;DHT22;54079;44.540;18.784;2024-03-06T13:34:06;17.50;71.60
55777;DHT22;54079;44.540;18.784;2024-03-06T13:36:33;17.10;71.90
55777;DHT22;54079;44.540;18.784;2024-03-06T13:38:59;17.00;72.20
55777;DHT22;54079;44.540;18.784;2024-03-06T13:41:25;16.70;72.60
55777;DHT22;54079;44.540;18.784;2024-03-06T13:43:51;16.70;72.20
55777;DHT22;54079;44.540;18.784;2024-03-06T13:46:17;16.50;72.50
55777;DHT22;54079;44.540;18.784;2024-03-06T13:48:43;16.50;72.80
55777;DHT22;54079;44.540;18.784;2024-03-06T13:51:09;16.80;72.20
55777;DHT22;54079;44.540;18.784;2024-03-06T13:53:35;17.00;71.70
55777;DHT22;54079;44.540;18.784;2024-03-06T13:56:01;16.90;69.60
55777;DHT22;54079;44.540;18.784;2024-03-06T13:58:28;16.80;69.70
55777;DHT22;54079;44.540;18.784;2024-03-06T14:00:54;16.80;68.90
55777;DHT22;54079;44.540;18.784;2024-03-06T14:03:20;17.00;69.40
55777;DHT22;54079;44.540;18.784;2024-03-06T14:05:47;17.20;69.90
55777;DHT22;54079;44.540;18.784;2024-03-06T14:08:13;17.20;70.30
55777;DHT22;54079;44.540;18.784;2024-03-06T14:10:39;17.00;70.40
55777;DHT22;54079;44.540;18.784;2024-03-06T14:13:06;17.20;70.40
55777;DHT22;54079;44.540;18.784;2024-03-06T14:15:33;16.90;70.80
55777;DHT22;54079;44.540;18.784;2024-03-06T14:17:59;16.90;71.20
55777;DHT22;54079;44.540;18.784;2024-03-06T14:20:27;17.00;70.50
55777;DHT22;54079;44.540;18.784;2024-03-06T14:22:53;16.70;70.20
55777;DHT22;54079;44.540;18.784;2024-03-06T14:25:19;16.60;70.80
55777;DHT22;54079;44.540;18.784;2024-03-06T14:27:46;16.70;70.70
55777;DHT22;54079;44.540;18.784;2024-03-06T14:30:13;16.80;70.50
55777;DHT22;54079;44.540;18.784;2024-03-06T14:32:40;16.70;69.60
55777;DHT22;54079;44.540;18.784;2024-03-06T14:35:07;16.40;69.60
55777;DHT22;54079;44.540;18.784;2024-03-06T14:37:33;16.30;69.90
55777;DHT22;54079;44.540;18.784;2024-03-06T14:39:59;16.30;69.40
55777;DHT22;54079;44.540;18.784;2024-03-06T14:42:25;16.40;69.30
55777;DHT22;54079;44.540;18.784;2024-03-06T14:44:51;16.50;68.30
55777;DHT22;54079;44.540;18.784;2024-03-06T14:47:18;16.60;68.40
55777;DHT22;54079;44.540;18.784;2024-03-06T14:49:44;16.60;67.90
55777;DHT22;54079;44.540;18.784;2024-03-06T14:52:13;16.60;67.90
55777;DHT22;54079;44.540;18.784;2024-03-06T14:54:39;16.50;68.10
55777;DHT22;54079;44.540;18.784;2024-03-06T14:57:07;16.40;67.90
55777;DHT22;54079;44.540;18.784;2024-03-06T14:59:33;16.40;67.30
55777;DHT22;54079;44.540;18.784;2024-03-06T15:02:00;16.60;67.50
55777;DHT22;54079;44.540;18.784;2024-03-06T15:04:26;16.70;67.10
55777;DHT22;54079;44.540;18.784;2024-03-06T15:06:52;16.40;65.90
55777;DHT22;54079;44.540;18.784;2024-03-06T15:09:18;16.20;66.50
55777;DHT22;54079;44.540;18.784;2024-03-06T15:11:50;16.00;66.80
55777;DHT22;54079;44.540;18.784;2024-03-06T15:14:18;15.90;67.40
55777;DHT22;54079;44.540;18.784;2024-03-06T15:16:45;16.00;67.40
55777;DHT22;54079;44.540;18.784;2024-03-06T15:19:11;15.90;67.50
55777;DHT22;54079;44.540;18.784;2024-03-06T15:21:37;16.10;67.80
55777;DHT22;54079;44.540;18.784;2024-03-06T15:24:03;16.10;67.50